Tiffin, IA (52340)

2:39 AM CDT on April 27, 2015 (GMT -0500)
North Liberty | | Change Station
CLOSE
Current Station
Personal Weather Station
Location: North Liberty, IA
Elevation: 784 ft
Nearby Weather Stations

Elev 784 ft 41.75 °N, 91.65 °W | Updated 0 second ago

Clear
Clear
40.3 °F
Feels Like 38 °F
N
3.6
Wind Variable Wind from North
Gusts 3.6 mph

Today
High -- | Low -- °F
--% Chance of Precip.
Yesterday
High -- | Low -- °F
Precip. -- in
6:09 AM 8:00 PM
Waxing Gibbous, 62% visible
Pressure 30.10 in
Visibility 10.0 miles
Clouds Clear
Windchill 38 °F
Dew Point 33 °F
Humidity 74%
Rainfall 0.00 in
Snow Depth Not available.
UV 0 out of 12
Pollen 10.40 out of 12
Air Quality Not available.
Flu Activity Local Activity
METAR KIOW 270652Z AUTO 00000KT 10SM CLR 04/01 A3009 RMK AO2 SLP193 T00390006

More Conditions Fewer Conditions

Pressure 30.10 in
Visibility 10.0 miles
Clouds Clear
Windchill 38 °F
Dew Point 33 °F
Humidity 74%
Rainfall 0.00 in
Snow Depth Not available.
UV 0 out of 12
Pollen 10.40 out of 12
Air Quality Not available.
Flu Activity Local Activity
METAR KIOW 270652Z AUTO 00000KT 10SM CLR 04/01 A3009 RMK AO2 SLP193 T00390006

More Conditions Fewer Conditions

10-Day Weather Forecast

Almanac

Astronomy

Apr. 27, 2015 Rise Set
Actual Time
Civil Twilight
Nautical Twilight
Astronomical Twilight
Moon
Length of Visible Light
Length of Day
Tomorrow will be .
, % of the Moon is Illuminated

Today's Extremes

State Highs State Lows

Community

WunderPhotos

Upload Photos

1,817,276 photos uploaded!

WunderBlogs® & News

Nearby

Air Quality

  Air Quality AQ Index Pollutant
Not available.

Snow Depth

Station Depth Elevation

Earthquake Activity

City Distance Mag. Time & Date
Minimum magnitude displayed is 2.5.

Coastal Water Temperatures

Place Temperature

Stations

Nearby Weather Stations

Station Location Temp. Windchill Dew Point Humidity Wind Precip. Elev Updated Type